Nearby METAR Reports

 

EGNX - East Midlands, United Kingdom
Distance from station: SW 12mi, 19km
Updated: 08/05/2021 19:50
Mostly cloudy
Mostly cloudy
 Wind from S
Wind: S 26 km/h
Temperature: 14°C
Dew Point: 12°C
Humidity: 88%
Barometer: 997 hPa
Clouds: Mostly cloudy
Visibility: 10 km
Cloud details: Partly cloudy 244 m
Mostly cloudy 457 m
2021/05/08 18:50 EGNX 081850Z 19014KT 9999 SCT008 BKN015 14/12 Q0997
EGYE - Barkston Heath R, United Kingdom
Distance from station: E 24mi, 39km
Updated: 07/05/2021 15:50
NOT Current
Clear
Clear
 Wind from WSW
Wind: WSW 24 km/h
Barometer: 1015 hPa
Summary: Clear
Visibility: greater than 10 km
2021/05/07 14:50 EGYE 071450Z 25013KT CAVOK ///// Q1015 RMK BLU
 
EGYD - Cranwell Raf, United Kingdom
Distance from station: ENE 28mi, 44km
Updated: 08/05/2021 19:50
Partly cloudy
Partly cloudy
 Wind from SSW
Wind: SSW 33 km/h
Temperature: 14°C
Dew Point: 12°C
Humidity: 88%
Barometer: 998 hPa
Clouds: Partly cloudy
Visibility: 10 km
Cloud details: Mostly cloudy 427 m
Partly cloudy 1829 m
2021/05/08 18:50 EGYD 081850Z AUTO 20018KT 9999 // BKN014/// SCT060/// 14/12 Q0998
EGXW - Waddington Raf, United Kingdom
Distance from station: ENE 31mi, 50km
Updated: 08/05/2021 19:50
Mostly cloudy
Mostly cloudy
 Wind from SSW
Wind: SSW 30 km/h
Temperature: 14°C
Dew Point: 12°C
Humidity: 88%
Barometer: 997 hPa
Clouds: Mostly cloudy
Visibility: 10 km
Cloud details: Mostly cloudy 396 m
2021/05/08 18:50 EGXW 081850Z AUTO 20016KT 9999 BKN013/// 14/12 Q0997 REDZ
 
EGSY - Yorkshire/Humber, United Kingdom
Distance from station: NNW 33mi, 52km
Updated: 08/05/2021 13:20
NOT Current
Light rain, Mostly cloudy
Light rain, Mostly cloudy
 Wind from SSW
Wind: SSW 22 km/h
Temperature: 13°C
Dew Point: 12°C
Humidity: 94%
Barometer: 1000 hPa
Summary: Light rain
Clouds: Mostly cloudy
Visibility: 10 km
Cloud details: Mostly cloudy 579 m
2021/05/08 12:20 EGSY 081220Z 21012KT 9999 -RA BKN019 13/12 Q1000
EGXP - Scampton Raf, United Kingdom
Distance from station: NE 35mi, 56km
Updated: 08/05/2021 19:50
Mostly cloudy
Mostly cloudy
 Wind from SSW
Wind: SSW 30 km/h
Temperature: 14°C
Dew Point: 12°C
Humidity: 88%
Barometer: 997 hPa
Clouds: Mostly cloudy
Visibility: 10 km
Cloud details: Few Clouds 396 m
Mostly cloudy 610 m
2021/05/08 18:50 EGXP 081850Z AUTO 21016KT 9999 // FEW013/// BKN020/// 14/12 Q0997
 
EGXT - Wittering Raf, United Kingdom
Distance from station: SE 37mi, 59km
Updated: 08/05/2021 19:50
Mist, Overcast
Mist, Overcast
 Wind from SSW
Wind: SSW 28 km/h
Temperature: 13°C
Dew Point: 12°C
Humidity: 94%
Barometer: 998 hPa
Summary: Mist
Clouds: Overcast
Visibility: 9 km
Cloud details: Overcast 213 m
2021/05/08 18:50 EGXT 081850Z AUTO 20015KT 9000 BR OVC007/// 13/12 Q0998 REDZ
EGCN - Doncaster Sheffi, United Kingdom
Distance from station: N 37mi, 60km
Updated: 08/05/2021 19:50
Light drizzle, Mostly cloudy
Light drizzle, Mostly cloudy
 Wind from S
Wind: S 22 km/h
Temperature: 14°C
Dew Point: 13°C
Humidity: 94%
Barometer: 997 hPa
Summary: Light Drizzle
Clouds: Mostly cloudy
Visibility: 10 km
Cloud details: Partly cloudy 305 m
Partly cloudy 488 m
Mostly cloudy 640 m
2021/05/08 18:50 EGCN 081850Z 19012KT 9999 -DZ SCT010 SCT016 BKN021 14/13 Q0997
 
EGBB - Birmingham Airpo, United Kingdom
Distance from station: SW 42mi, 67km
Updated: 08/05/2021 19:50
Rain, Overcast
Rain, Overcast
 Wind from S
Wind: S 22 km/h
Temperature: 13°C
Dew Point: 12°C
Humidity: 94%
Barometer: 998 hPa
Summary: Rain
Clouds: Overcast
Visibility: 2 km
Cloud details: Overcast 244 m
2021/05/08 18:50 EGBB 081850Z 19012KT 2000 RA OVC008 13/12 Q0998
EGXC - Coningsby Raf, United Kingdom
Distance from station: ENE 42mi, 68km
Updated: 08/05/2021 19:50
Mostly cloudy
Mostly cloudy
 Wind from SSW
Wind: SSW 31 km/h
Temperature: 14°C
Dew Point: 13°C
Humidity: 94%
Barometer: 998 hPa
Clouds: Mostly cloudy
Visibility: 10 km
Cloud details: Partly cloudy 457 m
Mostly cloudy 1829 m
2021/05/08 18:50 EGXC 081850Z 20017KT 9999 SCT015 BKN060 14/13 Q0998 RMK WHT